sensor_id;sensor_type;location;lat;lon;timestamp;P1;durP1;ratioP1;P2;durP2;ratioP2
35306;SDS011;21420;52.196;21.416;2023-01-01T00:00:18;17.10;;;12.30;;
35306;SDS011;21420;52.196;21.416;2023-01-01T00:02:44;16.75;;;11.55;;
35306;SDS011;21420;52.196;21.416;2023-01-01T00:05:10;17.37;;;13.30;;
35306;SDS011;21420;52.196;21.416;2023-01-01T00:07:36;16.27;;;12.28;;
35306;SDS011;21420;52.196;21.416;2023-01-01T00:10:03;16.40;;;11.83;;
35306;SDS011;21420;52.196;21.416;2023-01-01T00:12:48;14.80;;;11.05;;
35306;SDS011;21420;52.196;21.416;2023-01-01T00:15:14;13.30;;;10.23;;
35306;SDS011;21420;52.196;21.416;2023-01-01T00:17:41;12.78;;;10.25;;
35306;SDS011;21420;52.196;21.416;2023-01-01T00:20:07;13.03;;;9.50;;
35306;SDS011;21420;52.196;21.416;2023-01-01T00:22:34;10.75;;;8.83;;
35306;SDS011;21420;52.196;21.416;2023-01-01T00:25:00;11.22;;;8.48;;
35306;SDS011;21420;52.196;21.416;2023-01-01T00:27:26;12.43;;;9.35;;
35306;SDS011;21420;52.196;21.416;2023-01-01T00:29:53;11.95;;;9.55;;
35306;SDS011;21420;52.196;21.416;2023-01-01T00:32:19;15.28;;;9.65;;
35306;SDS011;21420;52.196;21.416;2023-01-01T00:34:45;12.60;;;8.85;;
35306;SDS011;21420;52.196;21.416;2023-01-01T00:37:11;11.43;;;8.03;;
35306;SDS011;21420;52.196;21.416;2023-01-01T00:39:39;11.73;;;8.48;;
35306;SDS011;21420;52.196;21.416;2023-01-01T00:42:06;11.33;;;7.70;;
35306;SDS011;21420;52.196;21.416;2023-01-01T00:44:32;11.08;;;7.65;;
35306;SDS011;21420;52.196;21.416;2023-01-01T00:46:59;10.72;;;8.03;;
35306;SDS011;21420;52.196;21.416;2023-01-01T00:49:25;12.07;;;8.23;;
35306;SDS011;21420;52.196;21.416;2023-01-01T00:51:52;12.70;;;8.05;;
35306;SDS011;21420;52.196;21.416;2023-01-01T00:54:18;12.33;;;7.95;;
35306;SDS011;21420;52.196;21.416;2023-01-01T00:56:45;10.78;;;7.55;;
35306;SDS011;21420;52.196;21.416;2023-01-01T00:59:11;9.83;;;7.65;;
35306;SDS011;21420;52.196;21.416;2023-01-01T01:01:38;12.43;;;7.78;;
35306;SDS011;21420;52.196;21.416;2023-01-01T01:04:05;10.08;;;7.15;;
35306;SDS011;21420;52.196;21.416;2023-01-01T01:06:34;9.33;;;6.95;;
35306;SDS011;21420;52.196;21.416;2023-01-01T01:09:01;9.38;;;7.40;;
35306;SDS011;21420;52.196;21.416;2023-01-01T01:11:28;7.10;;;6.40;;
35306;SDS011;21420;52.196;21.416;2023-01-01T01:13:54;8.33;;;6.62;;
35306;SDS011;21420;52.196;21.416;2023-01-01T01:16:28;11.18;;;6.87;;
35306;SDS011;21420;52.196;21.416;2023-01-01T01:18:58;10.55;;;6.25;;
35306;SDS011;21420;52.196;21.416;2023-01-01T01:21:27;9.85;;;6.83;;
35306;SDS011;21420;52.196;21.416;2023-01-01T01:23:56;7.85;;;6.67;;
35306;SDS011;21420;52.196;21.416;2023-01-01T01:26:28;9.05;;;6.70;;
35306;SDS011;21420;52.196;21.416;2023-01-01T01:28:56;9.35;;;6.58;;
35306;SDS011;21420;52.196;21.416;2023-01-01T01:31:23;9.75;;;5.97;;
35306;SDS011;21420;52.196;21.416;2023-01-01T01:33:56;9.48;;;6.58;;
35306;SDS011;21420;52.196;21.416;2023-01-01T01:36:22;9.93;;;6.78;;
35306;SDS011;21420;52.196;21.416;2023-01-01T01:38:50;9.33;;;6.83;;
35306;SDS011;21420;52.196;21.416;2023-01-01T01:41:17;9.90;;;6.65;;
35306;SDS011;21420;52.196;21.416;2023-01-01T01:46:31;9.35;;;7.25;;
35306;SDS011;21420;52.196;21.416;2023-01-01T01:49:12;9.05;;;6.75;;
35306;SDS011;21420;52.196;21.416;2023-01-01T01:51:42;8.48;;;6.58;;
35306;SDS011;21420;52.196;21.416;2023-01-01T01:54:11;7.85;;;6.17;;
35306;SDS011;21420;52.196;21.416;2023-01-01T01:56:42;8.25;;;6.47;;
35306;SDS011;21420;52.196;21.416;2023-01-01T01:59:18;9.58;;;6.83;;
35306;SDS011;21420;52.196;21.416;2023-01-01T02:01:45;8.98;;;6.85;;
35306;SDS011;21420;52.196;21.416;2023-01-01T02:04:12;10.35;;;7.08;;
35306;SDS011;21420;52.196;21.416;2023-01-01T02:06:39;9.70;;;7.00;;
35306;SDS011;21420;52.196;21.416;2023-01-01T02:09:05;8.93;;;6.35;;
35306;SDS011;21420;52.196;21.416;2023-01-01T02:11:33;9.15;;;6.00;;
35306;SDS011;21420;52.196;21.416;2023-01-01T02:13:59;9.60;;;6.17;;
35306;SDS011;21420;52.196;21.416;2023-01-01T02:16:37;7.83;;;6.22;;
35306;SDS011;21420;52.196;21.416;2023-01-01T02:22:25;9.65;;;6.50;;
35306;SDS011;21420;52.196;21.416;2023-01-01T02:28:00;9.20;;;6.15;;
35306;SDS011;21420;52.196;21.416;2023-01-01T02:30:32;10.98;;;6.47;;
35306;SDS011;21420;52.196;21.416;2023-01-01T02:33:06;11.03;;;6.62;;
35306;SDS011;21420;52.196;21.416;2023-01-01T02:35:40;9.05;;;6.30;;
35306;SDS011;21420;52.196;21.416;2023-01-01T02:40:50;9.70;;;7.20;;
35306;SDS011;21420;52.196;21.416;2023-01-01T02:43:24;9.43;;;6.95;;
35306;SDS011;21420;52.196;21.416;2023-01-01T02:45:50;9.05;;;6.28;;
35306;SDS011;21420;52.196;21.416;2023-01-01T02:57:15;14.55;;;7.28;;
35306;SDS011;21420;52.196;21.416;2023-01-01T03:05:55;8.65;;;6.35;;
35306;SDS011;21420;52.196;21.416;2023-01-01T03:08:48;7.62;;;6.30;;
35306;SDS011;21420;52.196;21.416;2023-01-01T03:11:45;8.33;;;6.40;;
35306;SDS011;21420;52.196;21.416;2023-01-01T03:14:23;11.57;;;6.47;;
35306;SDS011;21420;52.196;21.416;2023-01-01T03:17:09;9.50;;;6.80;;
35306;SDS011;21420;52.196;21.416;2023-01-01T03:19:51;9.03;;;6.33;;
35306;SDS011;21420;52.196;21.416;2023-01-01T03:22:21;9.68;;;7.08;;
35306;SDS011;21420;52.196;21.416;2023-01-01T03:24:53;8.68;;;7.12;;
35306;SDS011;21420;52.196;21.416;2023-01-01T03:27:30;9.08;;;6.70;;
35306;SDS011;21420;52.196;21.416;2023-01-01T03:30:02;11.53;;;6.72;;
35306;SDS011;21420;52.196;21.416;2023-01-01T03:32:37;9.00;;;6.50;;
35306;SDS011;21420;52.196;21.416;2023-01-01T03:35:33;8.40;;;6.53;;
35306;SDS011;21420;52.196;21.416;2023-01-01T03:38:07;8.43;;;6.42;;
35306;SDS011;21420;52.196;21.416;2023-01-01T03:40:42;8.95;;;6.05;;
35306;SDS011;21420;52.196;21.416;2023-01-01T03:43:17;7.05;;;6.12;;
35306;SDS011;21420;52.196;21.416;2023-01-01T03:45:47;7.85;;;6.08;;
35306;SDS011;21420;52.196;21.416;2023-01-01T03:48:16;7.92;;;6.50;;
35306;SDS011;21420;52.196;21.416;2023-01-01T03:50:46;7.70;;;6.72;;
35306;SDS011;21420;52.196;21.416;2023-01-01T03:53:32;7.10;;;5.72;;
35306;SDS011;21420;52.196;21.416;2023-01-01T03:56:26;8.98;;;6.53;;
35306;SDS011;21420;52.196;21.416;2023-01-01T03:59:09;10.18;;;5.85;;
35306;SDS011;21420;52.196;21.416;2023-01-01T04:01:45;8.43;;;6.10;;
35306;SDS011;21420;52.196;21.416;2023-01-01T04:04:17;8.90;;;6.25;;
35306;SDS011;21420;52.196;21.416;2023-01-01T04:06:44;9.80;;;5.97;;
35306;SDS011;21420;52.196;21.416;2023-01-01T04:09:12;7.78;;;6.15;;
35306;SDS011;21420;52.196;21.416;2023-01-01T04:11:43;7.85;;;5.95;;
35306;SDS011;21420;52.196;21.416;2023-01-01T04:14:30;7.45;;;5.60;;
35306;SDS011;21420;52.196;21.416;2023-01-01T04:17:00;7.20;;;5.25;;
35306;SDS011;21420;52.196;21.416;2023-01-01T04:19:27;8.78;;;5.83;;
35306;SDS011;21420;52.196;21.416;2023-01-01T04:21:54;6.58;;;5.58;;
35306;SDS011;21420;52.196;21.416;2023-01-01T04:24:20;7.80;;;5.45;;
35306;SDS011;21420;52.196;21.416;2023-01-01T04:26:48;7.28;;;5.35;;
35306;SDS011;21420;52.196;21.416;2023-01-01T04:29:16;6.92;;;5.67;;
35306;SDS011;21420;52.196;21.416;2023-01-01T04:31:43;7.95;;;5.85;;
35306;SDS011;21420;52.196;21.416;2023-01-01T04:34:09;7.42;;;5.50;;
35306;SDS011;21420;52.196;21.416;2023-01-01T04:36:36;7.15;;;5.78;;
35306;SDS011;21420;52.196;21.416;2023-01-01T04:39:02;6.65;;;5.45;;
35306;SDS011;21420;52.196;21.416;2023-01-01T04:41:29;6.80;;;5.17;;
35306;SDS011;21420;52.196;21.416;2023-01-01T04:43:55;6.50;;;4.78;;
35306;SDS011;21420;52.196;21.416;2023-01-01T04:46:22;6.67;;;5.25;;
35306;SDS011;21420;52.196;21.416;2023-01-01T04:48:49;6.85;;;5.37;;
35306;SDS011;21420;52.196;21.416;2023-01-01T04:51:16;6.72;;;4.65;;
35306;SDS011;21420;52.196;21.416;2023-01-01T04:53:44;5.78;;;4.83;;
35306;SDS011;21420;52.196;21.416;2023-01-01T04:56:11;7.10;;;4.78;;
35306;SDS011;21420;52.196;21.416;2023-01-01T04:58:40;9.28;;;5.12;;
35306;SDS011;21420;52.196;21.416;2023-01-01T05:01:07;7.97;;;4.45;;
35306;SDS011;21420;52.196;21.416;2023-01-01T05:03:37;7.37;;;4.83;;
35306;SDS011;21420;52.196;21.416;2023-01-01T05:06:04;5.33;;;4.20;;
35306;SDS011;21420;52.196;21.416;2023-01-01T05:08:35;5.47;;;4.12;;
35306;SDS011;21420;52.196;21.416;2023-01-01T05:11:10;5.45;;;4.08;;
35306;SDS011;21420;52.196;21.416;2023-01-01T05:13:38;4.65;;;3.92;;
35306;SDS011;21420;52.196;21.416;2023-01-01T05:16:09;5.45;;;3.87;;
35306;SDS011;21420;52.196;21.416;2023-01-01T05:18:39;5.35;;;4.60;;
35306;SDS011;21420;52.196;21.416;2023-01-01T05:21:07;6.60;;;4.42;;
35306;SDS011;21420;52.196;21.416;2023-01-01T05:23:38;6.72;;;4.12;;
35306;SDS011;21420;52.196;21.416;2023-01-01T05:26:12;5.55;;;4.22;;
35306;SDS011;21420;52.196;21.416;2023-01-01T05:28:38;6.37;;;4.12;;
35306;SDS011;21420;52.196;21.416;2023-01-01T05:31:10;4.30;;;3.52;;
35306;SDS011;21420;52.196;21.416;2023-01-01T05:33:34;4.67;;;3.80;;
35306;SDS011;21420;52.196;21.416;2023-01-01T05:36:02;6.58;;;4.05;;
35306;SDS011;21420;52.196;21.416;2023-01-01T05:38:31;5.97;;;4.10;;
35306;SDS011;21420;52.196;21.416;2023-01-01T05:40:57;6.12;;;4.35;;
35306;SDS011;21420;52.196;21.416;2023-01-01T05:43:23;7.42;;;3.87;;
35306;SDS011;21420;52.196;21.416;2023-01-01T05:45:58;6.20;;;4.40;;
35306;SDS011;21420;52.196;21.416;2023-01-01T05:48:26;8.10;;;4.03;;
35306;SDS011;21420;52.196;21.416;2023-01-01T05:50:53;5.00;;;3.70;;
35306;SDS011;21420;52.196;21.416;2023-01-01T05:53:19;4.72;;;3.70;;
35306;SDS011;21420;52.196;21.416;2023-01-01T05:55:50;5.92;;;4.08;;
35306;SDS011;21420;52.196;21.416;2023-01-01T05:58:18;4.75;;;3.72;;
35306;SDS011;21420;52.196;21.416;2023-01-01T06:00:45;7.22;;;3.85;;
35306;SDS011;21420;52.196;21.416;2023-01-01T06:03:12;4.75;;;4.05;;
35306;SDS011;21420;52.196;21.416;2023-01-01T06:05:38;5.55;;;3.98;;
35306;SDS011;21420;52.196;21.416;2023-01-01T06:08:04;7.53;;;4.25;;
35306;SDS011;21420;52.196;21.416;2023-01-01T06:10:30;5.58;;;4.33;;
35306;SDS011;21420;52.196;21.416;2023-01-01T06:12:58;5.90;;;3.85;;
35306;SDS011;21420;52.196;21.416;2023-01-01T06:15:25;5.62;;;4.17;;
35306;SDS011;21420;52.196;21.416;2023-01-01T06:17:52;6.58;;;4.03;;
35306;SDS011;21420;52.196;21.416;2023-01-01T06:20:19;5.83;;;3.95;;
35306;SDS011;21420;52.196;21.416;2023-01-01T06:22:45;4.20;;;3.47;;
35306;SDS011;21420;52.196;21.416;2023-01-01T06:25:11;6.97;;;4.03;;
35306;SDS011;21420;52.196;21.416;2023-01-01T06:27:38;5.85;;;4.00;;
35306;SDS011;21420;52.196;21.416;2023-01-01T06:30:04;5.60;;;4.20;;
35306;SDS011;21420;52.196;21.416;2023-01-01T06:32:32;7.78;;;4.70;;
35306;SDS011;21420;52.196;21.416;2023-01-01T06:34:58;5.72;;;4.10;;
35306;SDS011;21420;52.196;21.416;2023-01-01T06:37:24;5.58;;;4.20;;
35306;SDS011;21420;52.196;21.416;2023-01-01T06:39:53;6.08;;;3.87;;
35306;SDS011;21420;52.196;21.416;2023-01-01T06:42:19;7.05;;;4.00;;
35306;SDS011;21420;52.196;21.416;2023-01-01T06:44:45;6.67;;;3.87;;
35306;SDS011;21420;52.196;21.416;2023-01-01T06:47:11;6.12;;;3.85;;
35306;SDS011;21420;52.196;21.416;2023-01-01T06:49:37;5.40;;;3.95;;
35306;SDS011;21420;52.196;21.416;2023-01-01T06:52:03;6.70;;;4.42;;
35306;SDS011;21420;52.196;21.416;2023-01-01T06:54:29;6.05;;;4.08;;
35306;SDS011;21420;52.196;21.416;2023-01-01T06:56:56;5.80;;;4.75;;
35306;SDS011;21420;52.196;21.416;2023-01-01T06:59:22;5.65;;;3.85;;
35306;SDS011;21420;52.196;21.416;2023-01-01T07:01:48;6.90;;;4.08;;
35306;SDS011;21420;52.196;21.416;2023-01-01T07:04:15;7.67;;;4.28;;
35306;SDS011;21420;52.196;21.416;2023-01-01T07:06:41;6.87;;;5.03;;
35306;SDS011;21420;52.196;21.416;2023-01-01T07:09:07;6.75;;;4.58;;
35306;SDS011;21420;52.196;21.416;2023-01-01T07:11:34;7.35;;;4.25;;
35306;SDS011;21420;52.196;21.416;2023-01-01T07:14:01;7.30;;;4.17;;
35306;SDS011;21420;52.196;21.416;2023-01-01T07:16:27;6.78;;;4.47;;
35306;SDS011;21420;52.196;21.416;2023-01-01T07:18:54;5.05;;;4.25;;
35306;SDS011;21420;52.196;21.416;2023-01-01T07:21:23;4.67;;;4.03;;
35306;SDS011;21420;52.196;21.416;2023-01-01T07:24:02;5.72;;;3.90;;
35306;SDS011;21420;52.196;21.416;2023-01-01T07:26:30;6.12;;;4.30;;
35306;SDS011;21420;52.196;21.416;2023-01-01T07:28:57;6.90;;;4.70;;
35306;SDS011;21420;52.196;21.416;2023-01-01T07:31:25;6.10;;;3.80;;
35306;SDS011;21420;52.196;21.416;2023-01-01T07:33:51;6.95;;;3.77;;
35306;SDS011;21420;52.196;21.416;2023-01-01T07:36:17;5.87;;;4.25;;
35306;SDS011;21420;52.196;21.416;2023-01-01T07:38:44;5.80;;;3.80;;
35306;SDS011;21420;52.196;21.416;2023-01-01T07:41:10;5.95;;;3.72;;
35306;SDS011;21420;52.196;21.416;2023-01-01T07:43:36;7.60;;;3.80;;
35306;SDS011;21420;52.196;21.416;2023-01-01T07:46:02;6.92;;;3.75;;
35306;SDS011;21420;52.196;21.416;2023-01-01T07:48:29;4.22;;;3.55;;
35306;SDS011;21420;52.196;21.416;2023-01-01T07:50:55;6.22;;;4.67;;
35306;SDS011;21420;52.196;21.416;2023-01-01T07:53:21;7.37;;;3.72;;
35306;SDS011;21420;52.196;21.416;2023-01-01T07:55:48;6.67;;;3.27;;
35306;SDS011;21420;52.196;21.416;2023-01-01T07:58:16;7.22;;;3.55;;
35306;SDS011;21420;52.196;21.416;2023-01-01T08:00:44;6.08;;;3.58;;
35306;SDS011;21420;52.196;21.416;2023-01-01T08:03:13;5.45;;;3.70;;
35306;SDS011;21420;52.196;21.416;2023-01-01T08:05:40;8.03;;;3.77;;
35306;SDS011;21420;52.196;21.416;2023-01-01T08:08:06;6.92;;;4.20;;
35306;SDS011;21420;52.196;21.416;2023-01-01T08:10:35;11.67;;;4.30;;
35306;SDS011;21420;52.196;21.416;2023-01-01T08:13:02;6.65;;;4.45;;
35306;SDS011;21420;52.196;21.416;2023-01-01T08:17:58;10.50;;;4.37;;
35306;SDS011;21420;52.196;21.416;2023-01-01T08:20:27;6.75;;;3.45;;
35306;SDS011;21420;52.196;21.416;2023-01-01T08:22:55;7.37;;;3.52;;
35306;SDS011;21420;52.196;21.416;2023-01-01T08:25:23;5.67;;;2.85;;
35306;SDS011;21420;52.196;21.416;2023-01-01T08:27:50;7.10;;;3.47;;
35306;SDS011;21420;52.196;21.416;2023-01-01T08:30:16;7.28;;;3.17;;
35306;SDS011;21420;52.196;21.416;2023-01-01T08:32:42;8.08;;;3.50;;
35306;SDS011;21420;52.196;21.416;2023-01-01T08:35:09;4.78;;;3.22;;
35306;SDS011;21420;52.196;21.416;2023-01-01T08:37:35;4.45;;;2.95;;
35306;SDS011;21420;52.196;21.416;2023-01-01T08:40:02;7.70;;;3.40;;
35306;SDS011;21420;52.196;21.416;2023-01-01T08:42:29;6.35;;;3.22;;
35306;SDS011;21420;52.196;21.416;2023-01-01T08:44:55;6.95;;;3.08;;
35306;SDS011;21420;52.196;21.416;2023-01-01T08:47:22;6.17;;;3.37;;
35306;SDS011;21420;52.196;21.416;2023-01-01T08:49:51;8.20;;;3.63;;
35306;SDS011;21420;52.196;21.416;2023-01-01T08:52:18;6.90;;;3.30;;
35306;SDS011;21420;52.196;21.416;2023-01-01T08:54:45;5.97;;;3.58;;
35306;SDS011;21420;52.196;21.416;2023-01-01T08:57:11;7.40;;;3.12;;
35306;SDS011;21420;52.196;21.416;2023-01-01T08:59:38;8.10;;;3.70;;
35306;SDS011;21420;52.196;21.416;2023-01-01T09:02:04;5.72;;;3.17;;
35306;SDS011;21420;52.196;21.416;2023-01-01T09:04:32;7.03;;;3.55;;
35306;SDS011;21420;52.196;21.416;2023-01-01T09:06:58;6.72;;;3.42;;
35306;SDS011;21420;52.196;21.416;2023-01-01T09:09:25;6.12;;;2.85;;
35306;SDS011;21420;52.196;21.416;2023-01-01T09:11:51;8.08;;;3.58;;
35306;SDS011;21420;52.196;21.416;2023-01-01T09:14:20;9.55;;;3.60;;
35306;SDS011;21420;52.196;21.416;2023-01-01T09:16:47;5.30;;;3.33;;
35306;SDS011;21420;52.196;21.416;2023-01-01T09:19:13;7.42;;;3.60;;
35306;SDS011;21420;52.196;21.416;2023-01-01T09:21:40;6.87;;;3.98;;
35306;SDS011;21420;52.196;21.416;2023-01-01T09:24:06;6.83;;;3.62;;
35306;SDS011;21420;52.196;21.416;2023-01-01T09:26:33;5.25;;;3.12;;
35306;SDS011;21420;52.196;21.416;2023-01-01T09:28:59;6.30;;;3.27;;
35306;SDS011;21420;52.196;21.416;2023-01-01T09:31:25;15.68;;;3.75;;
35306;SDS011;21420;52.196;21.416;2023-01-01T09:33:51;8.48;;;2.90;;
35306;SDS011;21420;52.196;21.416;2023-01-01T09:36:28;11.10;;;3.70;;
35306;SDS011;21420;52.196;21.416;2023-01-01T09:38:56;9.85;;;3.40;;
35306;SDS011;21420;52.196;21.416;2023-01-01T09:50:13;6.22;;;3.60;;
35306;SDS011;21420;52.196;21.416;2023-01-01T09:53:03;7.92;;;3.47;;
35306;SDS011;21420;52.196;21.416;2023-01-01T09:55:41;10.28;;;3.52;;
35306;SDS011;21420;52.196;21.416;2023-01-01T09:58:13;6.03;;;3.20;;
35306;SDS011;21420;52.196;21.416;2023-01-01T10:00:44;8.20;;;3.35;;
35306;SDS011;21420;52.196;21.416;2023-01-01T10:06:24;7.22;;;4.10;;
35306;SDS011;21420;52.196;21.416;2023-01-01T10:11:58;8.13;;;3.20;;
35306;SDS011;21420;52.196;21.416;2023-01-01T10:14:34;8.05;;;3.10;;
35306;SDS011;21420;52.196;21.416;2023-01-01T10:17:22;10.13;;;3.55;;
35306;SDS011;21420;52.196;21.416;2023-01-01T10:19:52;12.73;;;3.77;;
35306;SDS011;21420;52.196;21.416;2023-01-01T10:25:03;7.60;;;2.80;;
35306;SDS011;21420;52.196;21.416;2023-01-01T10:27:57;7.75;;;3.80;;
35306;SDS011;21420;52.196;21.416;2023-01-01T10:30:27;7.08;;;3.33;;
35306;SDS011;21420;52.196;21.416;2023-01-01T10:32:55;6.08;;;2.95;;
35306;SDS011;21420;52.196;21.416;2023-01-01T10:35:27;9.73;;;3.85;;
35306;SDS011;21420;52.196;21.416;2023-01-01T10:38:00;6.53;;;2.95;;
35306;SDS011;21420;52.196;21.416;2023-01-01T10:40:29;10.90;;;3.90;;
35306;SDS011;21420;52.196;21.416;2023-01-01T10:42:57;11.38;;;4.25;;
35306;SDS011;21420;52.196;21.416;2023-01-01T10:45:30;12.47;;;4.00;;
35306;SDS011;21420;52.196;21.416;2023-01-01T10:51:24;8.30;;;3.40;;
35306;SDS011;21420;52.196;21.416;2023-01-01T10:56:18;7.60;;;3.02;;
35306;SDS011;21420;52.196;21.416;2023-01-01T11:03:54;10.82;;;3.83;;
35306;SDS011;21420;52.196;21.416;2023-01-01T11:06:33;11.57;;;3.72;;
35306;SDS011;21420;52.196;21.416;2023-01-01T11:09:05;9.40;;;3.20;;
35306;SDS011;21420;52.196;21.416;2023-01-01T11:11:55;6.87;;;3.15;;
35306;SDS011;21420;52.196;21.416;2023-01-01T11:14:29;9.93;;;3.35;;
35306;SDS011;21420;52.196;21.416;2023-01-01T11:17:08;9.70;;;3.47;;
35306;SDS011;21420;52.196;21.416;2023-01-01T11:19:36;8.00;;;2.90;;
35306;SDS011;21420;52.196;21.416;2023-01-01T11:22:05;8.63;;;3.27;;
35306;SDS011;21420;52.196;21.416;2023-01-01T11:24:32;13.75;;;6.70;;
35306;SDS011;21420;52.196;21.416;2023-01-01T11:27:20;13.15;;;3.95;;
35306;SDS011;21420;52.196;21.416;2023-01-01T11:29:49;7.92;;;3.05;;
35306;SDS011;21420;52.196;21.416;2023-01-01T11:32:19;11.00;;;3.62;;
35306;SDS011;21420;52.196;21.416;2023-01-01T11:35:02;8.40;;;3.35;;
35306;SDS011;21420;52.196;21.416;2023-01-01T11:37:34;12.40;;;3.83;;
35306;SDS011;21420;52.196;21.416;2023-01-01T11:40:03;11.03;;;3.65;;
35306;SDS011;21420;52.196;21.416;2023-01-01T11:42:35;8.70;;;3.22;;
35306;SDS011;21420;52.196;21.416;2023-01-01T11:45:07;8.50;;;3.37;;
35306;SDS011;21420;52.196;21.416;2023-01-01T11:47:55;9.78;;;3.50;;
35306;SDS011;21420;52.196;21.416;2023-01-01T11:52:55;9.25;;;4.20;;
35306;SDS011;21420;52.196;21.416;2023-01-01T11:58:13;7.78;;;3.50;;
35306;SDS011;21420;52.196;21.416;2023-01-01T12:00:42;9.98;;;3.75;;
35306;SDS011;21420;52.196;21.416;2023-01-01T12:05:47;8.08;;;4.25;;
35306;SDS011;21420;52.196;21.416;2023-01-01T12:08:31;6.42;;;2.80;;
35306;SDS011;21420;52.196;21.416;2023-01-01T12:11:19;9.18;;;3.70;;
35306;SDS011;21420;52.196;21.416;2023-01-01T12:14:31;10.30;;;4.53;;
35306;SDS011;21420;52.196;21.416;2023-01-01T12:17:43;12.93;;;3.95;;
35306;SDS011;21420;52.196;21.416;2023-01-01T12:20:34;12.33;;;3.25;;
35306;SDS011;21420;52.196;21.416;2023-01-01T12:23:00;7.45;;;3.80;;
35306;SDS011;21420;52.196;21.416;2023-01-01T12:25:32;8.20;;;3.77;;
35306;SDS011;21420;52.196;21.416;2023-01-01T12:28:24;11.43;;;3.85;;
35306;SDS011;21420;52.196;21.416;2023-01-01T12:34:02;10.25;;;4.30;;
35306;SDS011;21420;52.196;21.416;2023-01-01T12:36:38;7.90;;;3.22;;
35306;SDS011;21420;52.196;21.416;2023-01-01T12:42:30;13.30;;;4.15;;
35306;SDS011;21420;52.196;21.416;2023-01-01T12:50:47;9.13;;;4.08;;
35306;SDS011;21420;52.196;21.416;2023-01-01T13:02:01;13.48;;;4.80;;
35306;SDS011;21420;52.196;21.416;2023-01-01T13:04:34;12.30;;;3.62;;
35306;SDS011;21420;52.196;21.416;2023-01-01T13:07:05;9.43;;;4.20;;
35306;SDS011;21420;52.196;21.416;2023-01-01T13:09:38;8.38;;;5.25;;
35306;SDS011;21420;52.196;21.416;2023-01-01T13:12:05;10.85;;;4.85;;
35306;SDS011;21420;52.196;21.416;2023-01-01T13:14:44;11.40;;;5.08;;
35306;SDS011;21420;52.196;21.416;2023-01-01T13:17:20;7.97;;;3.58;;
35306;SDS011;21420;52.196;21.416;2023-01-01T13:19:58;11.88;;;3.85;;
35306;SDS011;21420;52.196;21.416;2023-01-01T13:22:38;8.85;;;3.67;;
35306;SDS011;21420;52.196;21.416;2023-01-01T13:33:27;26.27;;;13.35;;
35306;SDS011;21420;52.196;21.416;2023-01-01T13:49:28;7.62;;;4.72;;
35306;SDS011;21420;52.196;21.416;2023-01-01T13:58:05;8.90;;;4.10;;
35306;SDS011;21420;52.196;21.416;2023-01-01T14:00:53;10.35;;;5.28;;
35306;SDS011;21420;52.196;21.416;2023-01-01T14:03:20;11.68;;;6.33;;
35306;SDS011;21420;52.196;21.416;2023-01-01T14:05:52;11.60;;;6.53;;
35306;SDS011;21420;52.196;21.416;2023-01-01T14:08:26;12.70;;;7.55;;
35306;SDS011;21420;52.196;21.416;2023-01-01T14:11:01;15.20;;;6.90;;
35306;SDS011;21420;52.196;21.416;2023-01-01T14:13:43;26.02;;;15.25;;
35306;SDS011;21420;52.196;21.416;2023-01-01T14:16:10;21.33;;;9.53;;
35306;SDS011;21420;52.196;21.416;2023-01-01T14:18:45;16.90;;;8.63;;
35306;SDS011;21420;52.196;21.416;2023-01-01T14:21:19;20.00;;;10.03;;
35306;SDS011;21420;52.196;21.416;2023-01-01T14:23:49;7.87;;;4.90;;
35306;SDS011;21420;52.196;21.416;2023-01-01T14:26:26;14.13;;;7.10;;
35306;SDS011;21420;52.196;21.416;2023-01-01T14:29:01;13.75;;;7.17;;
35306;SDS011;21420;52.196;21.416;2023-01-01T14:31:29;20.12;;;10.30;;
35306;SDS011;21420;52.196;21.416;2023-01-01T14:34:12;11.63;;;5.05;;
35306;SDS011;21420;52.196;21.416;2023-01-01T14:36:52;9.80;;;5.53;;
35306;SDS011;21420;52.196;21.416;2023-01-01T14:39:23;14.23;;;6.60;;
35306;SDS011;21420;52.196;21.416;2023-01-01T14:42:08;12.03;;;6.97;;
35306;SDS011;21420;52.196;21.416;2023-01-01T14:44:40;11.83;;;6.67;;
35306;SDS011;21420;52.196;21.416;2023-01-01T14:49:59;13.15;;;6.42;;
35306;SDS011;21420;52.196;21.416;2023-01-01T14:52:26;13.22;;;7.62;;
35306;SDS011;21420;52.196;21.416;2023-01-01T14:54:56;33.58;;;15.83;;
35306;SDS011;21420;52.196;21.416;2023-01-01T14:57:25;19.20;;;11.20;;
35306;SDS011;21420;52.196;21.416;2023-01-01T14:59:58;46.02;;;21.60;;
35306;SDS011;21420;52.196;21.416;2023-01-01T15:04:56;28.50;;;12.63;;
35306;SDS011;21420;52.196;21.416;2023-01-01T15:07:27;77.60;;;30.40;;
35306;SDS011;21420;52.196;21.416;2023-01-01T15:09:56;88.27;;;35.48;;
35306;SDS011;21420;52.196;21.416;2023-01-01T15:12:26;87.78;;;39.95;;
35306;SDS011;21420;52.196;21.416;2023-01-01T15:14:53;54.18;;;26.65;;
35306;SDS011;21420;52.196;21.416;2023-01-01T15:17:23;72.27;;;38.08;;
35306;SDS011;21420;52.196;21.416;2023-01-01T15:20:05;34.95;;;19.55;;
35306;SDS011;21420;52.196;21.416;2023-01-01T15:22:48;21.87;;;10.98;;
35306;SDS011;21420;52.196;21.416;2023-01-01T15:25:17;33.98;;;16.05;;
35306;SDS011;21420;52.196;21.416;2023-01-01T15:27:48;36.35;;;17.42;;
35306;SDS011;21420;52.196;21.416;2023-01-01T15:30:21;16.17;;;9.43;;
35306;SDS011;21420;52.196;21.416;2023-01-01T15:32:53;29.67;;;18.92;;
35306;SDS011;21420;52.196;21.416;2023-01-01T15:35:26;22.20;;;12.90;;
35306;SDS011;21420;52.196;21.416;2023-01-01T15:37:58;18.45;;;12.30;;
35306;SDS011;21420;52.196;21.416;2023-01-01T15:40:29;26.50;;;15.78;;
35306;SDS011;21420;52.196;21.416;2023-01-01T15:45:37;25.25;;;17.10;;
35306;SDS011;21420;52.196;21.416;2023-01-01T15:53:20;19.42;;;11.95;;
35306;SDS011;21420;52.196;21.416;2023-01-01T15:56:08;15.48;;;9.18;;
35306;SDS011;21420;52.196;21.416;2023-01-01T15:58:35;12.20;;;9.18;;
35306;SDS011;21420;52.196;21.416;2023-01-01T16:01:19;16.45;;;9.30;;
35306;SDS011;21420;52.196;21.416;2023-01-01T16:03:49;12.43;;;8.75;;
35306;SDS011;21420;52.196;21.416;2023-01-01T16:06:20;11.93;;;8.88;;
35306;SDS011;21420;52.196;21.416;2023-01-01T16:08:47;12.68;;;9.18;;
35306;SDS011;21420;52.196;21.416;2023-01-01T16:11:13;11.60;;;7.35;;
35306;SDS011;21420;52.196;21.416;2023-01-01T16:13:40;10.30;;;6.95;;
35306;SDS011;21420;52.196;21.416;2023-01-01T16:16:16;14.68;;;7.90;;
35306;SDS011;21420;52.196;21.416;2023-01-01T16:18:50;11.45;;;7.42;;
35306;SDS011;21420;52.196;21.416;2023-01-01T16:21:17;14.58;;;8.25;;
35306;SDS011;21420;52.196;21.416;2023-01-01T16:23:44;19.10;;;11.45;;
35306;SDS011;21420;52.196;21.416;2023-01-01T16:26:10;12.15;;;7.87;;
35306;SDS011;21420;52.196;21.416;2023-01-01T16:28:38;14.68;;;10.72;;
35306;SDS011;21420;52.196;21.416;2023-01-01T16:31:04;17.10;;;10.38;;
35306;SDS011;21420;52.196;21.416;2023-01-01T16:33:31;12.43;;;8.18;;
35306;SDS011;21420;52.196;21.416;2023-01-01T16:35:57;17.10;;;10.08;;
35306;SDS011;21420;52.196;21.416;2023-01-01T16:38:23;21.55;;;13.18;;
35306;SDS011;21420;52.196;21.416;2023-01-01T16:40:50;15.08;;;10.23;;
35306;SDS011;21420;52.196;21.416;2023-01-01T16:43:17;16.23;;;10.15;;
35306;SDS011;21420;52.196;21.416;2023-01-01T16:45:43;14.28;;;10.03;;
35306;SDS011;21420;52.196;21.416;2023-01-01T16:48:10;15.30;;;10.45;;
35306;SDS011;21420;52.196;21.416;2023-01-01T16:50:37;13.68;;;10.60;;
35306;SDS011;21420;52.196;21.416;2023-01-01T16:53:03;14.38;;;10.18;;
35306;SDS011;21420;52.196;21.416;2023-01-01T16:55:29;11.60;;;8.70;;